Aérodrome :
LOGIN :

S'inscrire | Disclaimer

   EN    FR    IT 

 










Légende :    VFR   VFR Marginal   IFR   IFR Intensif   IFR Très Intensif
Visi : 
Plafond : 
>= 8 km
>= 3000ft
5 à 8 km
1000 à 3000 ft
1500m à 5 km
500 à 1000 ft
800 à 1500m
200 à 500 ft
< 800m
< 200 ft
Symboles :   Orages  Brouillard  Fortes neiges  Fortes précipitations  Vent > 20 kt
SIGMETs :   Divers  Orages  Givrage  Turbulence  Onde Orograph.  Cendres Volcan.






- Altitude de l'aérodrome : 220 ft
- Code IATA : CWL


EGFF - Cardiff Rhoose

DERNIER METAR :
  • 190520Z 11006KT CAVOK 01/01 Q1015

METARs EXPIRÉS :
  • 190450Z AUTO 11006KT 2700 BR BKN035 01/01 Q1015
  • 190420Z AUTO 09006KT 3500 BR NCD 01/01 Q1015
  • 190350Z AUTO 10007KT 3800 BR NCD 01/01 Q1015
  • 190320Z AUTO 09005KT 3600 BR NCD 01/01 Q1016
  • 190250Z 10006KT CAVOK 01/01 Q1016

TAF TAF EGFF
Valide du 19 à 06h jusqu'au 20 à 06h UTC


190453Z 1906/2006 12008KT 3000 BR FEW035
BECMG 1906/1909 8000 NSW
BECMG 1909/1912 9999
PROB30
TEMPO 1921/2006 12015G25KT
TEMPO 2000/2006 BKN010
ATIS : +44 1446 729 319



MET'MAP, la Météo Aéronautique d'un coup d'oeil ! - Copyright ORBIFLY Décembre 2007 - Disclaimer

ORBIFLY MET'MAP TEAM :

Programmation & Développement : Alexandra Zaïnal
Conception & Développement : Baudouin d'Aumeries
Co-Programmation & Développement : Marc-Olivier Méhu
Soutien technique & logistique : Manuel Goepfert

Contact : metmap@orbifly.com




SOURCES & CREDITS :

   NOAA